Portada
METAR-TAF:

METAR-TAF

Aeroports :

Aeroport de Roma-Fiumicino

Roma-Fiumicino, Itàlia

latitud: 41-48N, longitud: 012-14E, altitud: 2 m

Observació

L'informe es va fer fa 43 minuts, a les 04:50 UTC
Vent 4 kt del Nord-Est
Temperatura 14°C
Humitat 72%
Pressió 1021 hPa
Visibilitat 10 km o més
sense núvols per sota de 1500 mi sense presència de cumulonimbus.

METAR: LIRF 210450Z 05004KT CAVOK 14/09 Q1021 NOSIG

Hora: 07:33 (05:33 UTC)

Pronòstic

L'informe es va fer fa 33 minuts, a les 05:00 UTC
Pronòstic vàlid del 21 a les 06 UTC al 22 a les 12 UTC
Vent 5 kt amb direcció variable
Visibilitat 10 km o més
Núvols disperses a una alçada de 3000 ft
Evolucionant progressivament
l' 21 a les 08 UTC al 21 a les 10 UTC
Vent 13 kt del Sud
Temporalment
l' 21 a les 21 UTC al 22 a les 03 UTC
pluja
Temporalment
l' 22 a les 03 UTC al 22 a les 12 UTC
tempesta, pluja

TAF: LIRF 210500Z 2106/2212 VRB05KT 9999 SCT030 BECMG 2108/2110 17013KT TEMPO 2121/2203 RA TEMPO 2203/2212 TSRA

Observacions i pronòstics meteorològics de més de 4000 aeroports (METAR i TAF).

Les estacions disponibles són els punts grocs i vermells al mapa.

Posi el ratolí al punt desitjat per veure el nom de l'estació.

Feu clic per veure les observacions i els pronòstics meteorològics.

Per canviar el mapa: feu clic els botons verds amb una creu de color negre per apropar; al botó verd amb un guió per allunyar la imatge; o en les fletxes verdes per a mapes adjacents.


METAR-TAF: